createdAt,value
2018-07-28T00:00:35.618Z,5.01
2018-07-28T00:03:32.388Z,6.00
2018-07-28T00:06:29.255Z,5.88
2018-07-28T00:09:25.744Z,5.38
2018-07-28T00:12:21.821Z,5.91
2018-07-28T00:15:17.901Z,6.67
2018-07-28T00:18:13.969Z,4.84
2018-07-28T00:21:10.353Z,6.33
2018-07-28T00:24:07.310Z,3.99
2018-07-28T00:27:04.125Z,7.03
2018-07-28T00:30:00.501Z,5.31
2018-07-28T00:32:56.597Z,4.96
2018-07-28T00:35:53.181Z,4.82
2018-07-28T00:38:49.966Z,5.23
2018-07-28T00:41:46.624Z,4.82
2018-07-28T00:44:42.772Z,4.06
2018-07-28T00:47:39.140Z,4.30
2018-07-28T00:50:35.646Z,8.13
2018-07-28T00:53:31.824Z,4.77
2018-07-28T00:56:28.261Z,4.76
2018-07-28T00:59:25.090Z,5.40
2018-07-28T01:02:21.164Z,8.01
2018-07-28T01:05:17.827Z,4.04
2018-07-28T01:08:14.572Z,6.50
2018-07-28T01:11:10.990Z,3.78
2018-07-28T01:14:07.213Z,4.77
2018-07-28T01:17:03.593Z,5.17
2018-07-28T01:19:59.995Z,6.48
2018-07-28T01:22:56.496Z,5.02
2018-07-28T01:25:52.556Z,5.06
2018-07-28T01:29:08.064Z,5.28
2018-07-28T01:32:04.792Z,6.74
2018-07-28T01:35:01.456Z,8.14
2018-07-28T01:37:57.918Z,5.12
2018-07-28T01:40:54.289Z,4.98
2018-07-28T01:43:50.763Z,5.30
2018-07-28T01:46:47.147Z,6.29
2018-07-28T01:49:43.207Z,4.93
2018-07-28T01:52:40.213Z,4.56
2018-07-28T01:55:36.593Z,6.93
2018-07-28T01:58:32.956Z,6.20
2018-07-28T02:01:29.618Z,6.96
2018-07-28T02:04:26.124Z,10.06
2018-07-28T02:07:22.540Z,6.22
2018-07-28T02:10:18.898Z,6.61
2018-07-28T02:13:15.274Z,5.32
2018-07-28T02:16:12.094Z,6.83
2018-07-28T02:19:08.906Z,6.11
2018-07-28T02:22:05.285Z,5.20
2018-07-28T02:25:01.731Z,5.13
2018-07-28T02:27:57.842Z,6.33
2018-07-28T02:30:54.324Z,6.08
2018-07-28T02:33:50.716Z,6.28
2018-07-28T02:36:47.107Z,6.38
2018-07-28T02:39:43.175Z,6.80
2018-07-28T02:42:39.645Z,7.26
2018-07-28T02:45:35.730Z,6.71
2018-07-28T02:48:32.407Z,7.30
2018-07-28T02:51:29.079Z,5.82
2018-07-28T02:54:25.781Z,6.18
2018-07-28T02:57:22.184Z,6.10
2018-07-28T03:00:18.306Z,5.80
2018-07-28T03:03:14.692Z,6.36
2018-07-28T03:06:11.054Z,6.00
2018-07-28T03:09:09.913Z,4.86
2018-07-28T03:12:06.669Z,7.68
2018-07-28T03:15:31.269Z,6.08
2018-07-28T03:18:27.746Z,7.02
2018-07-28T03:21:24.110Z,6.40
2018-07-28T03:24:20.564Z,8.11
2018-07-28T03:27:16.653Z,6.31
2018-07-28T03:30:13.311Z,7.17
2018-07-28T03:33:09.157Z,5.82
2018-07-28T03:36:05.868Z,6.75
2018-07-28T03:39:02.256Z,6.33
2018-07-28T03:41:58.312Z,6.61
2018-07-28T03:44:56.251Z,5.99
2018-07-28T03:47:52.677Z,7.98
2018-07-28T03:50:49.355Z,8.20
2018-07-28T03:53:46.065Z,4.95
2018-07-28T03:56:42.124Z,6.34
2018-07-28T03:59:38.789Z,5.45
2018-07-28T04:02:35.850Z,8.18
2018-07-28T04:05:31.632Z,6.02
2018-07-28T04:08:27.722Z,6.56
2018-07-28T04:11:24.133Z,5.44
2018-07-28T04:14:20.622Z,7.85
2018-07-28T04:17:16.993Z,6.83
2018-07-28T04:20:13.712Z,7.39
2018-07-28T04:23:09.811Z,7.26
2018-07-28T04:26:06.462Z,6.62
2018-07-28T04:29:03.202Z,5.75
2018-07-28T04:31:59.730Z,6.37
2018-07-28T04:34:56.196Z,6.31
2018-07-28T04:37:52.872Z,5.89
2018-07-28T04:40:49.226Z,7.25
2018-07-28T04:43:45.691Z,7.78
2018-07-28T04:46:42.084Z,6.14
2018-07-28T04:49:38.460Z,8.52
2018-07-28T04:52:35.720Z,7.65
2018-07-28T04:55:30.991Z,7.68
2018-07-28T04:58:27.360Z,9.18
2018-07-28T05:01:23.816Z,6.90
2018-07-28T05:04:20.650Z,6.39
2018-07-28T05:07:17.272Z,6.90
2018-07-28T05:10:13.620Z,6.85
2018-07-28T05:13:10.071Z,7.57
2018-07-28T05:16:06.765Z,8.06
2018-07-28T05:19:02.826Z,6.00
2018-07-28T05:21:59.228Z,7.83
2018-07-28T05:24:55.737Z,5.73
2018-07-28T05:27:52.113Z,6.34
2018-07-28T05:30:48.500Z,6.60
2018-07-28T05:33:44.918Z,6.19
2018-07-28T05:36:41.304Z,6.65
2018-07-28T05:39:37.683Z,7.27
2018-07-28T05:42:34.201Z,6.56
2018-07-28T07:23:11.380Z,8.97
2018-07-28T07:26:08.376Z,6.18
2018-07-28T07:29:04.993Z,6.18
2018-07-28T07:32:01.757Z,7.11
2018-07-28T07:34:58.277Z,6.60
2018-07-28T07:37:54.642Z,7.36
2018-07-28T07:40:51.298Z,7.91
2018-07-28T07:43:48.407Z,7.32
2018-07-28T07:46:44.821Z,7.03
2018-07-28T07:49:41.891Z,7.55
2018-07-28T07:52:38.824Z,7.55
2018-07-28T07:55:35.834Z,6.87
2018-07-28T07:58:32.372Z,6.19
2018-07-28T08:01:29.338Z,6.12
2018-07-28T08:04:26.431Z,6.06
2018-07-28T08:07:23.229Z,6.53
2018-07-28T08:10:19.690Z,5.88
2018-07-28T08:13:16.343Z,6.04
2018-07-28T08:16:13.187Z,5.99
2018-07-28T08:19:10.208Z,6.56
2018-07-28T08:22:06.802Z,7.14
2018-07-28T08:25:04.029Z,6.39
2018-07-28T08:28:00.165Z,6.87
2018-07-28T08:30:56.141Z,7.29
2018-07-28T08:33:52.417Z,7.04
2018-07-28T08:36:49.315Z,7.23
2018-07-28T08:39:45.893Z,7.31
2018-07-28T08:42:42.260Z,7.79
2018-07-28T08:45:38.865Z,7.64
2018-07-28T08:48:35.174Z,7.85
2018-07-28T08:51:32.049Z,8.19
2018-07-28T08:54:28.691Z,7.64
2018-07-28T08:57:24.987Z,7.60
2018-07-28T09:00:21.449Z,7.40
2018-07-28T09:03:18.443Z,7.31
2018-07-28T09:06:15.429Z,7.12
2018-07-28T09:09:12.254Z,7.10
2018-07-28T09:12:08.593Z,7.55
2018-07-28T09:15:06.780Z,7.24
2018-07-28T09:18:03.498Z,7.18
2018-07-28T09:21:00.005Z,6.75
2018-07-28T09:23:56.180Z,7.17
2018-07-28T09:26:52.963Z,6.87
2018-07-28T09:29:49.506Z,6.70
2018-07-28T09:33:42.539Z,6.19
2018-07-28T09:36:39.550Z,6.13
2018-07-28T09:39:36.135Z,6.31
2018-07-28T09:42:33.770Z,6.08
2018-07-28T09:45:30.440Z,5.69
2018-07-28T09:48:27.199Z,5.58
2018-07-28T09:51:23.732Z,5.56
2018-07-28T09:54:20.346Z,5.37
2018-07-28T09:57:17.218Z,5.33
2018-07-28T10:00:33.408Z,5.27
2018-07-28T10:03:30.439Z,5.37
2018-07-28T10:06:26.985Z,5.34
2018-07-28T10:09:23.805Z,5.34
2018-07-28T10:12:20.835Z,4.62
2018-07-28T10:15:17.373Z,5.51
2018-07-28T10:18:14.325Z,5.27
2018-07-28T10:21:10.607Z,4.36
2018-07-28T10:24:07.759Z,5.05
2018-07-28T10:27:04.764Z,4.51
2018-07-28T10:30:01.309Z,4.82
2018-07-28T10:32:57.632Z,4.92
2018-07-28T10:35:54.106Z,4.38
2018-07-28T10:38:50.673Z,4.79
2018-07-28T10:41:47.523Z,5.50
2018-07-28T10:44:44.490Z,4.49
2018-07-28T10:47:41.055Z,4.41
2018-07-28T10:50:37.634Z,4.39
2018-07-28T10:53:35.186Z,4.17
2018-07-28T10:56:32.020Z,4.04
2018-07-28T10:59:28.891Z,4.76
2018-07-28T11:02:25.526Z,4.60
2018-07-28T11:05:22.076Z,4.16
2018-07-28T11:08:18.643Z,4.08
2018-07-28T11:11:15.162Z,4.15
2018-07-28T11:14:12.727Z,4.01
2018-07-28T11:17:09.640Z,3.76
2018-07-28T11:20:08.137Z,4.49
2018-07-28T11:23:04.645Z,4.03
2018-07-28T11:26:01.907Z,3.98
2018-07-28T11:28:58.846Z,3.98
2018-07-28T11:32:07.381Z,4.51
2018-07-28T11:35:15.266Z,4.09
2018-07-28T11:38:33.239Z,3.70
2018-07-28T11:41:40.987Z,4.13
2018-07-28T11:44:55.771Z,3.76
2018-07-28T11:47:52.740Z,3.99
2018-07-28T11:50:48.960Z,4.13
2018-07-28T11:53:45.249Z,4.06
2018-07-28T11:56:41.900Z,4.02
2018-07-28T11:59:38.155Z,3.81
2018-07-28T12:02:34.229Z,3.99
2018-07-28T12:05:30.546Z,4.23
2018-07-28T12:08:27.181Z,3.91
2018-07-28T12:11:24.191Z,4.12
2018-07-28T12:14:20.827Z,4.44
2018-07-28T12:17:17.379Z,4.15
2018-07-28T12:20:14.408Z,3.99
2018-07-28T12:23:10.665Z,4.21
2018-07-28T12:26:06.943Z,4.00
2018-07-28T12:29:03.825Z,4.30
2018-07-28T12:32:00.845Z,4.02
2018-07-28T12:34:57.793Z,3.95
2018-07-28T12:37:54.354Z,3.80
2018-07-28T12:40:50.913Z,4.40
2018-07-28T12:43:47.708Z,4.48
2018-07-28T12:46:44.171Z,4.39
2018-07-28T12:49:40.497Z,4.64
2018-07-28T12:52:37.324Z,4.79
2018-07-28T12:55:34.293Z,4.25
2018-07-28T12:58:30.810Z,4.16
2018-07-28T13:01:27.390Z,4.12
2018-07-28T13:04:24.445Z,4.33
2018-07-28T13:07:21.502Z,4.46
2018-07-28T13:10:18.077Z,4.28
2018-07-28T13:13:14.604Z,4.16
2018-07-28T13:16:11.172Z,4.22
2018-07-28T13:19:08.016Z,5.46
2018-07-28T13:22:04.889Z,4.45
2018-07-28T13:25:01.934Z,4.25
2018-07-28T13:27:58.511Z,4.34
2018-07-28T13:30:55.301Z,4.20
2018-07-28T13:33:52.198Z,3.98
2018-07-28T13:36:49.168Z,3.91
2018-07-28T13:39:45.724Z,4.90
2018-07-28T13:42:42.355Z,8.00
2018-07-28T13:45:38.923Z,22.29
2018-07-28T13:48:35.460Z,19.03
2018-07-28T13:51:31.468Z,17.64
2018-07-28T13:54:28.274Z,9.02
2018-07-28T13:57:25.626Z,7.89
2018-07-28T14:00:22.326Z,10.04
2018-07-28T14:03:18.564Z,15.65
2018-07-28T14:06:14.873Z,8.91
2018-07-28T14:09:11.312Z,11.14
2018-07-28T14:12:07.880Z,7.79
2018-07-28T14:15:04.985Z,8.79
2018-07-28T14:18:01.453Z,7.37
2018-07-28T14:20:58.021Z,8.98
2018-07-28T14:23:54.572Z,8.44
2018-07-28T14:26:51.235Z,7.67
2018-07-28T14:29:47.456Z,5.53
2018-07-28T14:32:44.093Z,9.38
2018-07-28T14:35:40.673Z,8.55
2018-07-28T14:38:37.682Z,8.75
2018-07-28T14:41:34.271Z,9.00
2018-07-28T14:44:30.924Z,8.83
2018-07-28T14:47:27.240Z,8.16
2018-07-28T14:50:23.672Z,7.17
2018-07-28T14:53:20.245Z,8.66
2018-07-28T14:56:16.876Z,8.98
2018-07-28T14:59:13.502Z,10.18
2018-07-28T15:02:10.446Z,11.24
2018-07-28T15:05:07.158Z,7.73
2018-07-28T15:08:03.780Z,8.04
2018-07-28T15:11:00.323Z,5.33
2018-07-28T15:13:56.754Z,4.61
2018-07-28T15:16:53.235Z,7.65
2018-07-28T15:19:49.873Z,7.40
2018-07-28T15:22:46.459Z,6.41
2018-07-28T15:25:43.074Z,6.36
2018-07-28T15:28:39.969Z,6.86
2018-07-28T15:31:36.243Z,6.11
2018-07-28T15:34:32.709Z,5.55
2018-07-28T15:37:29.274Z,5.79
2018-07-28T15:40:25.879Z,6.09
2018-07-28T15:43:22.508Z,5.73
2018-07-28T15:46:18.761Z,5.36
2018-07-28T15:49:15.313Z,5.92
2018-07-28T15:52:11.861Z,6.68
2018-07-28T15:55:08.431Z,5.61
2018-07-28T15:58:04.764Z,6.17
2018-07-28T16:01:01.350Z,6.10
2018-07-28T16:03:57.929Z,6.67
2018-07-28T16:06:54.581Z,7.04
2018-07-28T16:09:51.156Z,6.55
2018-07-28T16:12:47.737Z,6.08
2018-07-28T16:15:44.748Z,7.01
2018-07-28T16:18:41.346Z,6.42
2018-07-28T16:21:37.906Z,6.08
2018-07-28T16:24:35.051Z,6.60
2018-07-28T16:27:31.707Z,7.96
2018-07-28T16:30:28.263Z,6.16
2018-07-28T16:33:25.213Z,6.56
2018-07-28T16:36:21.787Z,6.65
2018-07-28T16:39:18.334Z,6.60
2018-07-28T16:42:14.703Z,6.64
2018-07-28T16:45:11.232Z,6.47
2018-07-28T16:48:07.604Z,7.51
2018-07-28T16:51:04.111Z,7.21
2018-07-28T16:54:00.545Z,6.86
2018-07-28T16:56:57.111Z,6.02
2018-07-28T16:59:53.694Z,6.60
2018-07-28T17:02:50.560Z,6.64
2018-07-28T17:05:47.065Z,9.17
2018-07-28T17:08:43.640Z,8.22
2018-07-28T17:11:41.243Z,7.84
2018-07-28T17:14:37.514Z,8.51
2018-07-28T17:17:34.097Z,8.87
2018-07-28T17:20:30.733Z,8.82
2018-07-28T17:23:27.786Z,8.94
2018-07-28T17:26:24.357Z,8.92
2018-07-28T17:29:21.282Z,8.01
2018-07-28T17:32:17.967Z,8.37
2018-07-28T17:35:14.455Z,8.85
2018-07-28T17:38:11.196Z,8.66
2018-07-28T17:41:07.612Z,8.72
2018-07-28T17:44:04.095Z,8.52
2018-07-28T17:47:00.705Z,10.16
2018-07-28T17:49:56.947Z,9.45
2018-07-28T17:52:53.499Z,7.91
2018-07-28T17:55:50.066Z,8.64
2018-07-28T17:58:46.634Z,8.83
2018-07-28T18:01:43.291Z,9.53
2018-07-28T18:04:39.909Z,8.48
2018-07-28T18:07:36.479Z,8.49
2018-07-28T18:10:32.675Z,7.67
2018-07-28T18:13:29.269Z,7.40
2018-07-28T18:16:25.861Z,7.19
2018-07-28T18:19:22.724Z,8.61
2018-07-28T18:22:19.345Z,8.95
2018-07-28T18:25:16.045Z,8.97
2018-07-28T18:28:12.328Z,8.92
2018-07-28T18:31:08.535Z,7.95
2018-07-28T18:34:04.854Z,7.68
2018-07-28T18:37:01.427Z,9.11
2018-07-28T18:39:57.988Z,8.08
2018-07-28T18:42:54.692Z,10.07
2018-07-28T18:45:51.334Z,9.48
2018-07-28T18:48:47.695Z,6.85
2018-07-28T18:51:44.143Z,7.32
2018-07-28T18:54:40.799Z,7.81
2018-07-28T18:57:37.418Z,7.06
2018-07-28T19:00:34.060Z,6.68
2018-07-28T19:03:30.776Z,5.76
2018-07-28T19:06:27.283Z,5.88
2018-07-28T19:09:42.863Z,5.52
2018-07-28T19:12:45.210Z,6.81
2018-07-28T19:15:41.712Z,6.80
2018-07-28T19:18:43.735Z,6.22
2018-07-28T19:21:40.284Z,5.71
2018-07-28T19:24:37.095Z,6.37
2018-07-28T19:27:33.684Z,6.58
2018-07-28T19:30:30.236Z,7.33
2018-07-28T19:33:26.967Z,8.55
2018-07-28T19:36:29.401Z,8.10
2018-07-28T19:39:25.710Z,7.10
2018-07-28T19:42:28.002Z,8.25
2018-07-28T19:45:24.238Z,7.06
2018-07-28T19:48:21.134Z,8.99
2018-07-28T19:51:17.551Z,7.12
2018-07-28T19:54:14.529Z,7.97
2018-07-28T19:57:11.185Z,6.57
2018-07-28T20:00:07.821Z,8.32
2018-07-28T20:03:04.514Z,7.24
2018-07-28T20:06:00.492Z,8.40
2018-07-28T20:08:57.020Z,6.36
2018-07-28T20:11:53.595Z,6.64
2018-07-28T20:14:50.078Z,5.90
2018-07-28T20:17:47.105Z,5.28
2018-07-28T20:20:44.104Z,4.37
2018-07-28T20:23:41.136Z,3.60
2018-07-28T20:26:37.675Z,4.17
2018-07-28T20:29:34.176Z,3.68
2018-07-28T20:32:30.430Z,3.18
2018-07-28T20:35:26.967Z,2.57
2018-07-28T20:38:23.836Z,3.21
2018-07-28T20:41:20.472Z,2.65
2018-07-28T20:44:17.121Z,2.43
2018-07-28T20:47:13.795Z,2.29
2018-07-28T20:50:10.443Z,2.65
2018-07-28T20:53:07.387Z,2.20
2018-07-28T20:56:07.991Z,3.18
2018-07-28T20:59:04.598Z,2.96
2018-07-28T21:02:01.111Z,2.69
2018-07-28T21:04:57.725Z,3.07
2018-07-28T21:07:54.389Z,2.18
2018-07-28T21:10:51.119Z,2.78
2018-07-28T21:13:47.936Z,2.24
2018-07-28T21:16:44.556Z,2.65
2018-07-28T21:19:41.237Z,3.10
2018-07-28T21:22:37.967Z,2.36
2018-07-28T21:25:34.666Z,3.03
2018-07-28T21:28:31.089Z,3.99
2018-07-28T21:31:27.567Z,2.98
2018-07-28T21:34:24.228Z,2.65
2018-07-28T21:37:21.014Z,3.95
2018-07-28T21:40:17.575Z,3.38
2018-07-28T21:43:13.919Z,5.24
2018-07-28T21:46:09.902Z,7.94
2018-07-28T21:49:06.502Z,9.95
2018-07-28T21:52:03.456Z,11.90
2018-07-28T21:55:00.180Z,11.38
2018-07-28T21:57:56.831Z,10.88
2018-07-28T22:00:58.363Z,9.96
2018-07-28T22:03:55.293Z,7.30
2018-07-28T22:06:51.889Z,7.17
2018-07-28T22:09:48.539Z,6.90
2018-07-28T22:12:45.295Z,6.79
2018-07-28T22:15:41.870Z,6.23
2018-07-28T22:18:38.473Z,4.98
2018-07-28T22:21:35.099Z,4.39
2018-07-28T22:24:31.753Z,4.30
2018-07-28T22:27:28.039Z,4.71
2018-07-28T22:30:24.585Z,3.74
2018-07-28T22:33:21.182Z,3.75
2018-07-28T22:36:17.766Z,3.39
2018-07-28T22:39:14.297Z,3.56
2018-07-28T22:42:10.623Z,3.62
2018-07-28T22:45:07.022Z,3.03
2018-07-28T22:48:03.598Z,4.64
2018-07-28T22:51:00.267Z,3.88
2018-07-28T22:53:57.058Z,2.22
2018-07-28T22:56:53.664Z,3.91
2018-07-28T22:59:49.959Z,3.53
2018-07-28T23:02:46.866Z,4.57
2018-07-28T23:05:43.848Z,3.70
2018-07-28T23:08:40.451Z,4.78
2018-07-28T23:11:37.029Z,4.93
2018-07-28T23:14:33.614Z,3.72
2018-07-28T23:17:30.236Z,4.64
2018-07-28T23:20:26.810Z,4.04
2018-07-28T23:23:23.239Z,4.11
2018-07-28T23:26:19.693Z,3.81
2018-07-28T23:29:16.251Z,4.08
2018-07-28T23:32:12.871Z,3.77
2018-07-28T23:35:09.834Z,3.89
2018-07-28T23:38:06.398Z,4.06
2018-07-28T23:41:03.002Z,4.81
2018-07-28T23:43:59.635Z,5.32
2018-07-28T23:46:56.258Z,4.19
2018-07-28T23:49:52.901Z,3.93
2018-07-28T23:52:49.667Z,4.36
2018-07-28T23:55:46.273Z,3.03
2018-07-28T23:58:43.496Z,3.71
